Peter Grant

Recruteur en chef - Wrexham
24 Avr 2027
Samedi
Processus

Personnalité

Adaptabilité (16) Ambition (7) Controverse (7) Loyauté (17) Pression (17) Professionnalisme (6) Sportivité (15) Tempérament (2)

Profil

Style d'entraînement Démocratique
Diplôme Continental B
Détermination 6
Gestion des joueurs 10
Motivation 4
Discipline 11
Satisfaction professionnelle
100%
Fatigue
0%
Rôle Recruteur en chef
Salaire 45.3K p/s
Contrat 14.03.2030

Performance

Comportement Bon
Efficacité de l'entraînement
40%
Développement des joueurs
60%
Prévention des blessures
30%
Mise en place tactique
25%

Événements récents

A participé à une réunion de recrutement maintenant
A recommandé une cible de transfert maintenant
A recommandé une cible de transfert maintenant
A recommandé une cible de transfert maintenant
A évalué un joueur maintenant
A évalué un joueur maintenant
A évalué un joueur maintenant
A évalué un joueur 7j

Suivi en cours

152
Joueur Club Statut Capacité Confiance Observé Dernière observation Dernier vote
Josh King Fulham Actif 142 / 150 40% 14 23.04.2027 -
Enzo Barrenechea Burnley Actif 144 / 142 40% 2 23.04.2027 -
Álex Valle Como Actif 137 / 148 40% 1 23.04.2027 -
T-Jay Parfitt Cardiff City Actif 95 / 103 40% 1 23.04.2027 -
Daniel Kelly Derby County Actif 120 / 110 40% 2 22.04.2027 -
Sam Curtis Swindon Town Actif 95 / 107 40% 2 22.04.2027 -
Julio Enciso Ipswich Town Actif 137 / 135 40% 3 21.04.2027 -
Tomáš Rigo Stoke City Actif 135 / 141 40% 2 21.04.2027 -
Bosun Lawal Stoke City Actif 121 / 139 40% 2 21.04.2027 -
Nathan Collins Brentford Actif 158 / 148 40% 1 21.04.2027 -
Max Bird Birmingham Actif 127 / 122 40% 4 18.04.2027 -
Jake O'Brien Everton Actif 150 / 140 40% 2 18.04.2027 -
Bobby Thomas Coventry City Actif 139 / 126 40% 4 17.04.2027 -
Ethan Galbraith Swansea City Actif 143 / 132 40% 4 16.04.2027 -
Max Johnston Derby County Actif 123 / 116 40% 4 16.04.2027 -
Surprise Manthosi Polokwane City Actif 84 / 106 40% 1 16.04.2027 -
Aaron Hickey Brentford Actif 134 / 138 40% 1 14.04.2027 -
Tyrell Malacia Derby County Actif 131 / 138 40% 3 13.04.2027 -
Jaden Philogene Ipswich Town Actif 145 / 131 40% 3 13.04.2027 -
Oliver Skipp Leicester City Actif 140 / 140 40% 2 13.04.2027 -
Assane Diao Como Actif 154 / 143 40% 2 13.04.2027 -
Neco Williams Nottingham Forest Actif 147 / 152 40% 2 11.04.2027 -
Alfie Doughty Millwall Actif 120 / 128 40% 3 11.04.2027 -
Welington Southampton Actif 142 / 118 40% 3 10.04.2027 -
Mathias Jørgensen Blackburn Rovers Actif 126 / 121 40% 2 09.04.2027 -
Shea Charles Southampton Actif 145 / 143 40% 2 09.04.2027 -
Kayne Ramsay Charlton Athletic Actif 118 / 135 40% 1 09.04.2027 -
Lamine Cissé Peterborough United Actif 120 / 118 40% 1 09.04.2027 -
Rumarn Burrell Queens Park Rangers Actif 129 / 120 40% 2 08.04.2027 -
Nico Paz Como Actif 165 / 169 40% 2 08.04.2027 -
Dango Ouattara Brentford Actif 152 / 142 40% 1 07.04.2027 -
Tshepang Moremi Orlando Pirates Actif 123 / 126 40% 1 07.04.2027 -
Imrân Louza Watford Actif 129 / 123 40% 2 05.04.2027 -
Jordan Beyer Burnley Actif 126 / 134 40% 2 05.04.2027 -
Harry Clarke Preston Actif 124 / 136 40% 3 04.04.2027 -
Michael Baidoo Plymouth Argyle Actif 117 / 132 40% 1 04.04.2027 -
Brooke Norton-Cuffy Hull City Actif 146 / 130 40% 3 03.04.2027 -
Alejandro Balde Barcelona Actif 167 / 159 40% 1 03.04.2027 -
Yunus Akgün Galatasaray Actif 129 / 153 40% 1 03.04.2027 -
Juanlu Bournemouth Actif 159 / 156 40% 6 01.04.2027 -
Nobel Mendy Hull City Actif 144 / 132 40% 1 01.04.2027 -
Tim Iroegbunam Hull City Actif 136 / 151 40% 3 31.03.2027 -
Mfundo Vilakazi Kaizer Chiefs Actif 109 / 121 40% 1 31.03.2027 -
Tyrese Campbell Sheffield United Actif 127 / 117 40% 1 31.03.2027 -
Josh Doig Sassuolo Actif 137 / 128 40% 1 29.03.2027 -
Djed Spence Inter Actif 149 / 143 40% 1 28.03.2027 -
André Wolverhampton Actif 156 / 149 40% 1 28.03.2027 -
Abraham Paintsil Hasaacas Actif 103 / 96 40% 6 26.03.2027 -
Trevoh Chalobah Como Actif 145 / 162 40% 2 26.03.2027 -
Daniel Kyerewaa Reading Actif 103 / 124 40% 1 26.03.2027 -
Joel McGregor Swindon Town Actif 85 / 100 40% 1 26.03.2027 -
Kasey McAteer Ipswich Town Actif 136 / 128 40% 1 23.03.2027 -
Ilyas Ansah Hull City Actif 142 / 135 40% 1 23.03.2027 -
Ben Nelson Leicester City Actif 139 / 134 40% 1 23.03.2027 -
Habeeb Ogunneye Astra Actif 92 / 103 40% 1 19.03.2027 -
Finn Azaz Southampton Actif 121 / 124 40% 2 16.03.2027 -
Calvin Bassey Fulham Actif 153 / 142 40% 2 16.03.2027 -
Toby Collyer West Bromwich Albion Actif 130 / 134 40% 1 15.03.2027 -
Amine Adli Bournemouth Actif 142 / 146 40% 2 14.03.2027 -
Alex Scott Bournemouth Actif 156 / 147 40% 4 13.03.2027 -
Jovon Makama Norwich City Actif 135 / 132 40% 2 09.03.2027 -
Anel Ahmedhodžić Burnley Actif 128 / 128 40% 2 09.03.2027 -
David Ozoh Derby County Actif 129 / 117 40% 1 09.03.2027 -
Tiago Freitas Benfica Actif 102 / 117 40% 1 09.03.2027 -
Edoardo Bove Watford Actif 137 / 136 40% 1 08.03.2027 -
Zeidane Inoussa Swansea City Actif 135 / 114 40% 3 06.03.2027 -
Morgan Gibbs-White Nottingham Forest Actif 148 / 156 40% 1 06.03.2027 -
Jack Rudoni Coventry City Actif 143 / 134 40% 4 05.03.2027 -
Morgan Whittaker Middlesbrough Actif 130 / 126 40% 1 05.03.2027 -
Luke McNally Bristol City Actif 127 / 127 40% 2 02.03.2027 -
Christian Krasnodar Actif 143 / 132 40% 1 02.03.2027 -
Ronnie Edwards Queens Park Rangers Actif 119 / 119 40% 3 01.03.2027 -
Ousmane Diomande Nottingham Forest Actif 144 / 160 40% 1 28.02.2027 -
Isma Ruiz Córdoba Actif 129 / 124 40% 1 26.02.2027 -
Dara O'Shea Ipswich Town Actif 145 / 141 40% 1 22.02.2027 -
Jorrel Hato Chelsea Actif 148 / 143 40% 4 21.02.2027 -
Chemsdine Talbi Sunderland Actif 153 / 136 40% 2 20.02.2027 -
Brenden Aaronson Leeds United Actif 138 / 140 40% 1 15.02.2027 -
Petar Stanić Ludogorets Actif 136 / 140 40% 1 14.02.2027 -
Jacob Greaves Ipswich Town Actif 129 / 133 40% 1 06.02.2027 -
Florentino Luís Ipswich Town Actif 143 / 145 40% 1 06.02.2027 -
Romaine Mundle Sunderland Actif 143 / 128 40% 1 06.02.2027 -
António Silva Bournemouth Actif 141 / 138 40% 1 31.01.2027 -
Oliver Skipp Leicester City Perdu 128 / 132 40% 1 25.01.2027 -
Christ Inao Oulaï Fiorentina Actif 140 / 136 40% 1 18.01.2027 -
Bright Osayi-Samuel Birmingham Actif 119 / 124 58% 1 11.01.2027 -
Matthew Garbett Peterborough United Actif 116 / 105 58% 1 06.01.2027 -
Adnan Carrasco FC Nantes Négociation 151 / 156 64% 1 01.01.2027 Approuver
Adrian Dragusin CFR Cluj Actif 141 / 142 63% 1 01.01.2027 Approuver
Amar Memić Juventude Négociation 127 / 128 62% 1 01.01.2027 Approuver
Dion Beljo Dinamo Zagreb Perdu 131 / 132 66% 1 01.01.2027 -
Ethan Williams Peterborough United Actif 113 / 107 58% 1 01.01.2027 -
Brandon Khela Peterborough United Actif 102 / 94 40% 4 31.12.2026 -
James Dornelly Peterborough United Actif 111 / 116 40% 2 29.12.2026 -
Alex Tóth Bournemouth Actif 115 / 122 40% 2 27.12.2026 -
Mandla Mokotjo SuperSport United Actif 69 / 109 40% 1 25.12.2026 -
Riquelme Thompson-Jones Shrewsbury Town Actif 105 / 118 40% 3 23.12.2026 -
Owen Lunt Crewe Alexandra Actif 86 / 111 40% 1 23.12.2026 -
Mauricio Amaro Atlanta United FC Perdu 126 / 117 40% 8 22.12.2026 -
Rhys Walters Port Vale Actif 104 / 108 40% 1 22.12.2026 -
Christos Mouzakitis Hull City Actif 127 / 146 40% 3 21.12.2026 -
Joe Knight Stevenage Actif 99 / 105 40% 3 17.12.2026 -
Ezra Mayers West Ham United Actif 124 / 126 40% 1 16.12.2026 -
João Muniz Sporting CP Actif 111 / 117 40% 1 15.12.2026 -
Kaick FC Dallas Actif 97 / 120 40% 4 13.12.2026 -
El Hadji Malick Diouf Brentford Actif 142 / 140 40% 4 12.12.2026 -
Pedro Lima Wolverhampton Actif 111 / 127 40% 2 12.12.2026 -
Mohammed Wakaso Hasaacas Actif 106 / 107 40% 2 11.12.2026 -
Simphiwe Selepe Orlando Pirates Actif 108 / 100 40% 4 08.12.2026 -
Luther Ngcobo Ajax Cape Town Actif 98 / 98 40% 3 05.12.2026 -
Riley Owen Wycombe Wanderers Actif 103 / 107 40% 1 04.12.2026 -
Victor Ehibe Gazelle Garoua Actif 84 / 77 40% 2 03.12.2026 -
Gladson Sulemana Liberty Professionals Actif 98 / 86 40% 1 03.12.2026 -
Sifiso Mphela Ajax Cape Town Actif 97 / 82 40% 1 02.12.2026 -
Noah Sadiki Sunderland Actif 137 / 151 40% 4 01.12.2026 -
Emmanuel Mathias Ikorodu City Actif 101 / 101 40% 3 26.11.2026 -
Philippe Ndinga Philadelphia Union Actif 110 / 134 40% 4 26.11.2026 -
Jonathan Bland Barnsley Actif 107 / 107 40% 2 23.11.2026 -
Caleb Yirenkyi Coventry City Actif 135 / 142 40% 2 19.11.2026 -
Yahaya Ibrahim Plateau United Actif 81 / 88 40% 1 12.11.2026 -
Mbekezeli Mbokazi Chicago Fire Actif 118 / 112 40% 6 05.11.2026 -
Jérémy Jacquet Liverpool Actif 133 / 140 40% 1 27.10.2026 -
Nico O'Reilly Manchester City Actif 155 / 163 40% 4 25.10.2026 -
Jack Hinshelwood Brighton Actif 134 / 147 40% 2 22.10.2026 -
Mandla Khune SuperSport United Actif 80 / 78 40% 2 22.10.2026 -
Rico Lewis Manchester City Perdu 141 / 153 40% 1 16.10.2026 -
Elías Báez Atlanta United FC Actif 109 / 110 40% 2 07.10.2026 -
Sergio Oregel Chicago Fire Actif 107 / 122 40% 1 06.10.2026 -
Emmanuel Akpan Bendel Insurance Actif 95 / 94 40% 1 06.10.2026 -
Dylan Lawlor Cardiff City Actif 115 / 122 40% 2 05.10.2026 -
Godwin Oham Warri Wolves Actif 76 / 83 40% 1 30.09.2026 -
Onyia Henry Bendel Insurance Actif 85 / 74 40% 1 30.09.2026 -
Derek Mazou-Sacko Millwall Actif 108 / 128 40% 2 29.09.2026 -
Sheriff Amuda Shooting Stars Actif 67 / 78 40% 1 29.09.2026 -
Cemran Dansin Orlando Pirates Actif 99 / 127 40% 1 26.09.2026 -
Stanley Joseph Remo Stars Actif 83 / 87 40% 1 25.09.2026 -
Jacob Wright Norwich City Actif 103 / 130 40% 1 25.09.2026 -
Olaniyi Saheed Kwara United Actif 105 / 80 40% 1 22.09.2026 -
Frankie Westfield Philadelphia Union Actif 106 / 98 40% 1 21.09.2026 -
Reuell Walters Luton Town Actif 116 / 122 40% 1 21.09.2026 -
Pedro Soma San Diego Football Club Actif 92 / 105 40% 1 20.09.2026 -
Uche Jaguar Kwara United Actif 73 / 105 40% 1 17.09.2026 -
Sam Gale Gillingham Actif 87 / 98 40% 1 17.09.2026 -
Joel Ezra Enyimba Actif 85 / 82 40% 2 16.09.2026 -
Chibueze Oputa Rangers International Actif 80 / 95 40% 1 16.09.2026 -
Aleksa Cvetković Vancouver Whitecaps Actif 114 / 110 40% 1 14.09.2026 -
Issa Yusuf Shooting Stars Actif 76 / 87 40% 1 11.09.2026 -
Harvey Araujo Burton Albion Actif 89 / 95 40% 1 02.09.2026 -
Lucas Agazzi Defensor Sporting Actif 135 / 127 40% 1 01.09.2026 -
Jofrank Istifanus Nasarawa United Actif 66 / 105 40% 1 28.08.2026 -
Johnly Yfeko Exeter City Actif 104 / 121 55% 1 24.08.2026 -
Mateo Mendoza Godoy Cruz Actif 113 / 135 40% 1 24.08.2026 -